Time;durP1;ratioP1;P1;durP2;ratioP2;P2;SDS_P1;SDS_P2;PMS_P1;PMS_P2;Temp;Humidity;BMP_temperature;BMP_pressure;BME280_temperature;BME280_humidity;BME280_pressure;Samples;Min_cycle;Max_cycle;Signal;HPM_P1;HPM_P2
2021/12/19 00:01:22;;;;;;;10.10;6.45;;;14.40;86.40;;;;;;5101723;27;45259;-76
2021/12/19 00:03:57;;;;;;;10.77;6.43;;;14.40;85.40;;;;;;5099473;27;45746;-76
2021/12/19 00:09:10;;;;;;;9.90;6.07;;;14.40;86.10;;;;;;5101133;27;45291;-76
2021/12/19 00:11:37;;;;;;;9.75;6.60;;;14.20;85.80;;;;;;5101058;27;45265;-76
2021/12/19 00:14:05;;;;;;;8.98;6.18;;;13.80;87.80;;;;;;5098200;27;47115;-76
2021/12/19 00:16:32;;;;;;;9.45;6.22;;;13.80;89.10;;;;;;5099624;27;45297;-76
2021/12/19 00:18:59;;;;;;;10.25;6.20;;;14.10;87.80;;;;;;5103525;27;46561;-77
2021/12/19 00:21:27;;;;;;;9.63;6.15;;;13.90;86.60;;;;;;5099040;27;45375;-76
2021/12/19 00:23:55;;;;;;;10.40;6.75;;;14.00;86.30;;;;;;5100744;27;46001;-76
2021/12/19 00:26:22;;;;;;;8.27;5.80;;;13.70;86.70;;;;;;5100273;27;45280;-76
2021/12/19 00:28:51;;;;;;;8.80;5.82;;;13.70;89.90;;;;;;5105105;27;45211;-76
2021/12/19 00:31:18;;;;;;;9.27;6.05;;;13.90;90.40;;;;;;5099967;27;45485;-76
2021/12/19 00:33:45;;;;;;;9.27;6.05;;;14.30;87.30;;;;;;5100431;27;47492;-76
2021/12/19 00:36:12;;;;;;;10.63;6.13;;;14.00;89.50;;;;;;5099822;27;45231;-76
2021/12/19 00:38:40;;;;;;;9.30;6.10;;;14.20;89.00;;;;;;5100726;27;45152;-76
2021/12/19 00:41:07;;;;;;;9.05;6.22;;;14.10;87.70;;;;;;5100341;27;45237;-76
2021/12/19 00:43:36;;;;;;;8.45;6.30;;;14.10;85.10;;;;;;5106789;27;46005;-76
2021/12/19 00:46:06;;;;;;;10.90;6.10;;;13.90;85.60;;;;;;5107579;27;45456;-76
2021/12/19 00:48:33;;;;;;;8.38;5.82;;;13.70;90.00;;;;;;5108131;27;45295;-76
2021/12/19 00:51:00;;;;;;;9.43;5.93;;;13.90;86.60;;;;;;5107996;27;45351;-76
2021/12/19 00:53:27;;;;;;;8.93;5.82;;;13.60;89.10;;;;;;5109259;27;46579;-76
2021/12/19 00:55:55;;;;;;;9.25;5.80;;;13.80;89.70;;;;;;5099124;27;45261;-76
2021/12/19 00:58:22;;;;;;;8.45;5.47;;;14.10;86.40;;;;;;5107384;27;45343;-77
2021/12/19 01:00:49;;;;;;;9.20;5.63;;;14.10;86.40;;;;;;5103329;27;45284;-77
2021/12/19 01:03:16;;;;;;;8.60;5.95;;;14.10;85.60;;;;;;5108922;27;46213;-76
2021/12/19 01:05:44;;;;;;;8.52;6.07;;;14.00;87.00;;;;;;5107317;27;45144;-76
2021/12/19 01:08:12;;;;;;;9.02;6.00;;;13.80;85.50;;;;;;5101252;27;45168;-76
2021/12/19 01:10:41;;;;;;;9.00;5.95;;;13.30;89.20;;;;;;5109560;27;45266;-75
2021/12/19 01:13:09;;;;;;;8.48;5.53;;;13.40;90.70;;;;;;5109275;27;45208;-76
2021/12/19 01:15:36;;;;;;;9.63;6.03;;;13.90;88.00;;;;;;5108017;27;45232;-77
2021/12/19 01:18:04;;;;;;;8.70;5.55;;;13.80;86.20;;;;;;5107868;27;45633;-76
2021/12/19 01:20:33;;;;;;;9.05;6.22;;;13.60;87.50;;;;;;5107885;27;45331;-76
2021/12/19 01:23:00;;;;;;;8.45;5.78;;;13.40;88.30;;;;;;5108390;27;47664;-77
2021/12/19 01:25:27;;;;;;;9.15;6.28;;;13.30;90.50;;;;;;5108520;27;45156;-76
2021/12/19 01:27:55;;;;;;;9.02;5.43;;;13.60;89.60;;;;;;5109045;27;45230;-76
2021/12/19 01:30:23;;;;;;;7.95;5.43;;;13.60;90.20;;;;;;5106939;27;45235;-76
2021/12/19 01:32:50;;;;;;;8.07;5.47;;;14.00;88.30;;;;;;5108271;27;45437;-76
2021/12/19 01:35:19;;;;;;;7.90;5.75;;;14.20;86.80;;;;;;5107014;27;45109;-76
2021/12/19 01:37:47;;;;;;;7.50;5.32;;;14.30;85.80;;;;;;5101381;27;45295;-77
2021/12/19 01:40:17;;;;;;;7.57;5.38;;;14.30;84.30;;;;;;5106819;27;45356;-76
2021/12/19 01:42:45;;;;;;;8.95;5.95;;;14.30;84.00;;;;;;5094865;27;46480;-76
2021/12/19 01:45:15;;;;;;;7.57;5.15;;;14.20;85.50;;;;;;5108885;27;45234;-76
2021/12/19 01:47:44;;;;;;;8.50;5.50;;;14.30;86.20;;;;;;5093126;27;45334;-77
2021/12/19 01:50:11;;;;;;;8.50;5.65;;;14.30;84.00;;;;;;5108233;27;45238;-77
2021/12/19 01:52:39;;;;;;;7.72;5.22;;;14.30;83.60;;;;;;5104821;27;47542;-76
2021/12/19 01:55:07;;;;;;;9.38;6.07;;;14.20;84.60;;;;;;5107395;27;45340;-76
2021/12/19 01:57:35;;;;;;;8.75;5.72;;;14.20;82.90;;;;;;5106502;27;45241;-77
2021/12/19 02:00:04;;;;;;;11.15;6.82;;;13.70;85.10;;;;;;5108066;27;45634;-77
2021/12/19 02:02:31;;;;;;;8.40;5.63;;;13.40;86.90;;;;;;5096365;27;46848;-76
2021/12/19 02:04:59;;;;;;;8.65;5.68;;;13.40;88.70;;;;;;5106950;27;46225;-77
2021/12/19 02:07:28;;;;;;;8.73;6.25;;;13.70;87.30;;;;;;5088356;28;45295;-77
2021/12/19 02:09:55;;;;;;;10.48;5.53;;;13.70;86.80;;;;;;5106307;27;45330;-76
2021/12/19 02:12:22;;;;;;;7.90;5.88;;;13.70;89.00;;;;;;5101404;27;46558;-77
2021/12/19 02:14:49;;;;;;;8.77;5.28;;;13.90;85.40;;;;;;5107897;27;45388;-77
2021/12/19 02:17:17;;;;;;;7.43;5.13;;;13.80;87.00;;;;;;5104179;27;45662;-77
2021/12/19 02:19:44;;;;;;;8.05;5.22;;;13.90;87.10;;;;;;5104982;27;45437;-77
2021/12/19 02:22:12;;;;;;;9.15;6.00;;;13.70;86.10;;;;;;5092352;27;48205;-77
2021/12/19 02:24:39;;;;;;;12.40;6.38;;;13.70;86.30;;;;;;5106585;27;45462;-76
2021/12/19 02:27:05;;;;;;;8.35;5.63;;;13.70;87.80;;;;;;5107553;27;45222;-76
2021/12/19 02:29:32;;;;;;;9.13;5.68;;;13.70;88.40;;;;;;5107848;27;45335;-77
2021/12/19 02:32:01;;;;;;;7.20;5.18;;;13.50;87.40;;;;;;5105631;27;45244;-77
2021/12/19 02:34:31;;;;;;;7.95;5.72;;;13.60;87.50;;;;;;5107021;27;46043;-77
2021/12/19 02:37:04;;;;;;;9.02;5.70;;;13.60;84.30;;;;;;5106540;27;45222;-77
2021/12/19 02:39:47;;;;;;;8.23;5.15;;;13.80;86.10;;;;;;5107782;27;45279;-77
2021/12/19 02:50:26;;;;;;;10.70;6.15;;;13.70;85.00;;;;;;5107770;27;45177;-77
2021/12/19 02:52:54;;;;;;;9.13;5.78;;;13.70;85.30;;;;;;5107540;27;48190;-77
2021/12/19 02:55:22;;;;;;;7.50;5.47;;;13.90;85.90;;;;;;5107869;27;45294;-77
2021/12/19 02:57:49;;;;;;;8.52;5.97;;;13.60;87.30;;;;;;5103399;27;45511;-77
2021/12/19 03:00:20;;;;;;;10.32;5.85;;;13.60;86.90;;;;;;5101847;27;45189;-77
2021/12/19 03:02:47;;;;;;;10.70;6.72;;;13.40;87.30;;;;;;5108770;27;45753;-77
2021/12/19 03:05:14;;;;;;;9.77;6.22;;;13.40;87.80;;;;;;5100438;27;45845;-77
2021/12/19 03:07:43;;;;;;;8.90;6.10;;;13.50;86.00;;;;;;5109613;27;45271;-76
2021/12/19 03:10:49;;;;;;;8.27;5.35;;;13.60;87.80;;;;;;5111493;27;45568;-76
2021/12/19 03:13:26;;;;;;;8.65;5.68;;;13.70;86.10;;;;;;5104309;27;45374;-77
2021/12/19 03:18:39;;;;;;;10.50;5.45;;;13.90;87.00;;;;;;5110836;27;45325;-78
2021/12/19 03:21:10;;;;;;;8.73;6.00;;;14.00;85.20;;;;;;5111145;27;45345;-77
2021/12/19 03:23:37;;;;;;;11.90;5.88;;;13.90;84.30;;;;;;5110058;27;45340;-78
2021/12/19 03:26:04;;;;;;;8.02;5.35;;;13.60;85.90;;;;;;5111033;27;45241;-77
2021/12/19 03:28:32;;;;;;;8.90;6.30;;;13.50;87.80;;;;;;5110509;27;45174;-77
2021/12/19 03:30:59;;;;;;;10.70;5.82;;;13.30;87.70;;;;;;5110254;27;45171;-77
2021/12/19 03:33:26;;;;;;;9.13;5.70;;;13.20;89.00;;;;;;5101680;27;46212;-77
2021/12/19 03:35:53;;;;;;;13.10;6.38;;;13.50;88.70;;;;;;5093824;27;45386;-77
2021/12/19 03:38:20;;;;;;;10.23;6.18;;;13.60;86.60;;;;;;5097770;27;45168;-77
2021/12/19 03:40:55;;;;;;;8.45;5.70;;;13.60;86.80;;;;;;5092963;27;45447;-77
2021/12/19 03:43:24;;;;;;;11.73;6.55;;;13.40;87.80;;;;;;5098638;27;45435;-77
2021/12/19 03:45:52;;;;;;;7.95;5.32;;;13.60;87.10;;;;;;5105220;27;45714;-77
2021/12/19 03:48:20;;;;;;;9.27;5.55;;;13.50;87.70;;;;;;5108059;27;45480;-78
2021/12/19 03:50:49;;;;;;;8.30;5.68;;;13.50;87.50;;;;;;5110028;27;45508;-77
2021/12/19 03:53:19;;;;;;;11.98;5.82;;;13.70;87.70;;;;;;5100817;27;47035;-78
2021/12/19 03:55:46;;;;;;;9.13;5.45;;;13.70;86.20;;;;;;5104664;27;45187;-77
2021/12/19 03:58:15;;;;;;;11.88;6.43;;;13.60;87.50;;;;;;5109095;27;45248;-77
2021/12/19 04:00:43;;;;;;;9.60;5.38;;;13.50;87.40;;;;;;5109416;27;45176;-77
2021/12/19 04:03:18;;;;;;;8.65;5.28;;;13.60;88.10;;;;;;5107603;27;48098;-77
2021/12/19 04:05:45;;;;;;;8.45;5.45;;;13.70;87.70;;;;;;5108859;27;45228;-77
2021/12/19 04:08:12;;;;;;;7.80;5.38;;;13.60;86.10;;;;;;5109690;27;45306;-78
2021/12/19 04:10:40;;;;;;;8.15;5.18;;;13.30;86.60;;;;;;5101050;27;45208;-78
2021/12/19 04:13:07;;;;;;;8.50;5.45;;;13.30;89.30;;;;;;5110515;27;45474;-77
2021/12/19 04:15:33;;;;;;;7.88;4.57;;;13.20;90.00;;;;;;5108648;27;45295;-77
2021/12/19 04:18:00;;;;;;;6.85;5.03;;;13.30;88.60;;;;;;5108864;27;45255;-78
2021/12/19 04:20:29;;;;;;;8.93;5.03;;;13.40;89.70;;;;;;5108747;27;45308;-77
2021/12/19 04:22:55;;;;;;;7.57;4.32;;;13.70;87.70;;;;;;5110505;27;46236;-78
2021/12/19 04:25:23;;;;;;;7.72;5.03;;;13.60;88.90;;;;;;5108726;27;45147;-78
2021/12/19 04:27:50;;;;;;;7.20;4.70;;;13.60;87.20;;;;;;5110358;27;45290;-76
2021/12/19 04:30:18;;;;;;;6.75;4.38;;;13.60;87.70;;;;;;5108187;27;45243;-77
2021/12/19 04:32:56;;;;;;;7.07;4.70;;;13.60;88.10;;;;;;5109775;27;46163;-77
2021/12/19 04:35:22;;;;;;;6.40;4.10;;;13.70;85.50;;;;;;5098234;27;45301;-77
2021/12/19 04:40:56;;;;;;;7.32;4.72;;;13.80;85.50;;;;;;5079428;27;45303;-77
2021/12/19 04:51:57;;;;;;;7.55;4.03;;;13.90;85.60;;;;;;5089725;28;45395;-77
2021/12/19 04:54:43;;;;;;;7.00;4.60;;;13.90;86.10;;;;;;5095957;27;46956;-77
2021/12/19 04:57:25;;;;;;;6.22;4.53;;;13.90;86.00;;;;;;5108362;27;45409;-77
2021/12/19 04:59:53;;;;;;;6.45;4.38;;;13.70;85.30;;;;;;5109239;27;45241;-78
2021/12/19 05:02:36;;;;;;;5.55;3.65;;;13.70;86.70;;;;;;5108039;27;45250;-78
2021/12/19 05:16:16;;;;;;;9.13;4.25;;;13.20;89.90;;;;;;5367777;22;46190;-78
2021/12/19 05:18:45;;;;;;;5.95;3.80;;;12.80;90.60;;;;;;5121578;27;47885;-78
2021/12/19 05:21:16;;;;;;;6.88;4.22;;;13.00;91.40;;;;;;5109343;27;45284;-78
2021/12/19 05:26:31;;;;;;;6.05;3.90;;;12.80;91.20;;;;;;5101349;27;45340;-79
2021/12/19 05:28:58;;;;;;;5.50;3.50;;;12.90;91.60;;;;;;5110864;27;46507;-78
2021/12/19 05:31:25;;;;;;;6.80;3.97;;;12.90;91.40;;;;;;5107894;27;45190;-78
2021/12/19 05:33:52;;;;;;;5.60;3.58;;;12.80;91.60;;;;;;5122255;27;45375;-78
2021/12/19 05:47:13;;;;;;;5.90;3.58;;;13.00;91.50;;;;;;5117095;27;45581;-78
2021/12/19 05:49:40;;;;;;;6.47;3.60;;;13.20;91.10;;;;;;5124450;27;46333;-78
2021/12/19 05:52:07;;;;;;;5.75;3.67;;;13.20;90.10;;;;;;5123150;27;45152;-78
2021/12/19 05:54:35;;;;;;;6.32;3.55;;;13.00;90.40;;;;;;5121891;27;45366;-78
2021/12/19 05:57:02;;;;;;;7.57;4.40;;;12.80;91.00;;;;;;5103692;27;45221;-78
2021/12/19 05:59:29;;;;;;;6.43;4.28;;;12.50;91.80;;;;;;5111767;27;46317;-78
2021/12/19 06:01:56;;;;;;;7.20;4.30;;;12.40;92.50;;;;;;5102998;27;45987;-78
2021/12/19 06:04:22;;;;;;;6.97;4.32;;;12.80;91.70;;;;;;5119734;27;45306;-79
2021/12/19 06:06:51;;;;;;;9.15;4.05;;;13.10;91.10;;;;;;5121007;27;45314;-79
2021/12/19 06:09:18;;;;;;;7.25;4.22;;;13.20;90.80;;;;;;5110516;27;45685;-78
2021/12/19 06:11:46;;;;;;;9.18;4.03;;;13.20;91.00;;;;;;5122078;27;45361;-78
2021/12/19 06:14:13;;;;;;;10.05;4.43;;;13.20;90.70;;;;;;5121379;27;45563;-79
2021/12/19 06:16:40;;;;;;;7.05;4.00;;;13.20;90.50;;;;;;5122406;27;45350;-79
2021/12/19 06:19:06;;;;;;;6.93;4.38;;;13.20;90.40;;;;;;5107617;27;45283;-78
2021/12/19 06:21:33;;;;;;;8.15;5.05;;;13.20;90.30;;;;;;5092055;27;45350;-78
2021/12/19 06:24:00;;;;;;;7.90;4.00;;;13.20;90.60;;;;;;5099044;27;45374;-78
2021/12/19 06:26:27;;;;;;;7.57;4.00;;;13.20;90.40;;;;;;5089884;28;45535;-78
2021/12/19 06:28:55;;;;;;;6.18;4.03;;;13.00;90.80;;;;;;5095450;27;46954;-78
2021/12/19 06:31:22;;;;;;;6.70;4.32;;;13.20;91.10;;;;;;5094013;27;45270;-78
2021/12/19 06:33:49;;;;;;;8.45;4.97;;;13.30;90.70;;;;;;5097782;27;45468;-78
2021/12/19 06:36:16;;;;;;;9.27;5.07;;;13.20;90.60;;;;;;5095299;27;45561;-78
2021/12/19 06:38:43;;;;;;;8.43;4.70;;;13.10;90.40;;;;;;5089767;27;45432;-78
2021/12/19 06:41:10;;;;;;;7.03;4.25;;;12.90;91.30;;;;;;5092578;27;45295;-78
2021/12/19 06:43:37;;;;;;;9.88;4.88;;;12.80;91.00;;;;;;5090117;28;45177;-78
2021/12/19 06:46:05;;;;;;;8.02;4.30;;;12.60;91.50;;;;;;5093867;27;45213;-78
2021/12/19 06:48:32;;;;;;;8.57;4.90;;;12.80;91.60;;;;;;5096632;27;46482;-78
2021/12/19 06:50:59;;;;;;;10.75;5.30;;;12.80;90.90;;;;;;5096894;27;45899;-77
2021/12/19 06:53:26;;;;;;;8.52;4.75;;;12.70;91.00;;;;;;5096312;27;45176;-78
2021/12/19 06:55:52;;;;;;;10.55;5.50;;;12.40;91.70;;;;;;5095412;27;45287;-78
2021/12/19 06:58:19;;;;;;;8.98;4.65;;;12.10;91.80;;;;;;5107998;27;45358;-78
2021/12/19 07:00:46;;;;;;;6.70;3.83;;;12.20;91.30;;;;;;5105107;27;45283;-78
2021/12/19 07:03:15;;;;;;;6.20;3.75;;;12.20;91.50;;;;;;5103976;27;45266;-78
2021/12/19 07:05:42;;;;;;;7.90;3.70;;;12.20;90.70;;;;;;5098672;27;45298;-78
2021/12/19 07:08:10;;;;;;;6.60;3.22;;;12.10;91.30;;;;;;5103325;27;47372;-78
2021/12/19 07:10:37;;;;;;;4.97;2.60;;;11.90;92.20;;;;;;5109273;27;46254;-78
2021/12/19 07:13:04;;;;;;;5.85;2.80;;;12.30;91.40;;;;;;5098278;27;45329;-79
2021/12/19 07:15:30;;;;;;;6.05;3.05;;;12.20;91.00;;;;;;5097679;27;46529;-79
2021/12/19 07:18:02;;;;;;;4.97;2.40;;;12.20;90.70;;;;;;5103063;27;47006;-78
2021/12/19 07:20:30;;;;;;;4.50;2.55;;;12.60;90.60;;;;;;5102711;27;46390;-78
2021/12/19 07:22:57;;;;;;;6.18;2.55;;;12.80;87.80;;;;;;5107225;27;45231;-78
2021/12/19 07:25:24;;;;;;;4.25;1.92;;;12.80;89.80;;;;;;5103763;27;45424;-78
2021/12/19 07:27:52;;;;;;;3.72;1.73;;;12.80;88.90;;;;;;5097101;27;45979;-78
2021/12/19 07:30:19;;;;;;;3.35;2.08;;;13.00;88.30;;;;;;5099163;27;45242;-78
2021/12/19 07:32:46;;;;;;;4.05;1.75;;;13.10;87.60;;;;;;5103908;27;45557;-78
2021/12/19 07:35:13;;;;;;;3.50;1.98;;;13.10;88.30;;;;;;5102423;27;45247;-78
2021/12/19 07:37:42;;;;;;;2.80;1.55;;;13.00;86.50;;;;;;5098123;27;47134;-78
2021/12/19 07:40:14;;;;;;;3.88;1.90;;;13.00;88.00;;;;;;5101978;27;45172;-78
2021/12/19 07:42:41;;;;;;;3.30;1.80;;;13.20;86.70;;;;;;5099236;27;46248;-78
2021/12/19 07:45:10;;;;;;;4.00;2.13;;;13.00;87.90;;;;;;5107182;27;45215;-78
2021/12/19 07:47:38;;;;;;;5.22;2.00;;;12.80;87.80;;;;;;5099154;27;47075;-78
2021/12/19 07:50:06;;;;;;;5.22;2.53;;;12.70;86.80;;;;;;5104922;27;45550;-78
2021/12/19 07:52:33;;;;;;;4.20;2.40;;;12.80;89.50;;;;;;5101360;27;45312;-78
2021/12/19 07:55:01;;;;;;;4.45;2.60;;;13.00;87.70;;;;;;5089256;27;45207;-78
2021/12/19 07:57:28;;;;;;;8.88;2.92;;;12.90;88.40;;;;;;5095936;27;46360;-78
2021/12/19 07:59:54;;;;;;;4.88;2.88;;;13.20;89.70;;;;;;5091765;27;45328;-78
2021/12/19 08:02:21;;;;;;;5.18;2.92;;;13.20;87.60;;;;;;5104150;27;46241;-78
2021/12/19 08:04:48;;;;;;;6.43;3.28;;;13.00;87.70;;;;;;5089732;27;45370;-78
2021/12/19 08:07:17;;;;;;;5.32;2.90;;;13.00;87.30;;;;;;5105730;27;46214;-78
2021/12/19 08:09:58;;;;;;;5.60;3.00;;;12.90;88.00;;;;;;5104799;27;45250;-78
2021/12/19 08:12:27;;;;;;;4.93;3.17;;;12.80;90.00;;;;;;5099849;27;45317;-78
2021/12/19 08:14:54;;;;;;;7.03;3.88;;;12.70;90.30;;;;;;5094709;27;45389;-78
2021/12/19 08:17:21;;;;;;;5.63;2.88;;;12.80;88.90;;;;;;5101425;27;46196;-78
2021/12/19 08:19:49;;;;;;;8.40;3.75;;;12.60;90.10;;;;;;5104666;27;45367;-78
2021/12/19 08:22:15;;;;;;;7.32;3.47;;;12.90;89.10;;;;;;5112243;27;45344;-77
2021/12/19 08:24:45;;;;;;;7.38;3.95;;;13.00;88.60;;;;;;5103674;27;45391;-78
2021/12/19 08:27:12;;;;;;;6.80;3.67;;;12.90;89.10;;;;;;5103552;27;46402;-78
2021/12/19 08:29:40;;;;;;;7.30;4.13;;;12.90;90.00;;;;;;5094208;27;45157;-78
2021/12/19 08:32:07;;;;;;;6.35;3.45;;;12.90;88.80;;;;;;5092069;27;45352;-77
2021/12/19 08:34:35;;;;;;;9.65;3.17;;;13.00;89.40;;;;;;5100422;27;45429;-78
2021/12/19 08:37:03;;;;;;;5.40;3.35;;;13.10;88.00;;;;;;5093486;27;45250;-78
2021/12/19 08:39:31;;;;;;;5.53;3.00;;;12.90;88.20;;;;;;5096537;27;45451;-78
2021/12/19 08:41:58;;;;;;;4.47;2.85;;;12.90;90.00;;;;;;5099410;27;45181;-78
2021/12/19 08:44:25;;;;;;;5.72;3.10;;;12.90;88.90;;;;;;5089838;27;45221;-78
2021/12/19 08:46:53;;;;;;;6.18;2.72;;;12.80;88.10;;;;;;5100635;27;47896;-78
2021/12/19 08:49:20;;;;;;;4.18;2.67;;;12.80;90.00;;;;;;5100336;27;45639;-78
2021/12/19 08:51:47;;;;;;;4.57;3.00;;;13.20;89.20;;;;;;5105039;27;45159;-78
2021/12/19 08:54:14;;;;;;;4.45;2.60;;;13.50;86.60;;;;;;5093679;27;45349;-78
2021/12/19 08:56:41;;;;;;;4.82;2.85;;;13.30;88.30;;;;;;5099224;27;46595;-78
2021/12/19 08:59:08;;;;;;;5.38;2.78;;;13.10;88.30;;;;;;5095017;27;45559;-78
2021/12/19 09:01:36;;;;;;;7.63;3.00;;;13.10;89.40;;;;;;5099110;27;45223;-78
2021/12/19 09:04:04;;;;;;;4.38;2.70;;;13.00;88.50;;;;;;5106305;27;45314;-78
2021/12/19 09:06:31;;;;;;;4.00;2.35;;;12.80;90.20;;;;;;5099703;27;45630;-77
2021/12/19 09:08:58;;;;;;;4.72;2.80;;;12.90;91.00;;;;;;5098420;27;46329;-78
2021/12/19 09:11:25;;;;;;;4.22;2.47;;;12.90;90.30;;;;;;5100226;27;45270;-77
2021/12/19 09:13:52;;;;;;;4.65;2.20;;;13.00;90.00;;;;;;5101548;27;45294;-78
2021/12/19 09:16:19;;;;;;;3.60;2.25;;;13.00;89.60;;;;;;5099280;27;46267;-78
2021/12/19 09:18:46;;;;;;;6.82;2.40;;;12.70;90.00;;;;;;5098553;27;45195;-78
2021/12/19 09:21:14;;;;;;;2.75;1.83;;;12.40;90.60;;;;;;5099443;27;45268;-77
2021/12/19 09:23:41;;;;;;;3.78;2.00;;;12.50;90.90;;;;;;5097943;27;45465;-78
2021/12/19 09:26:08;;;;;;;4.93;2.28;;;13.00;89.30;;;;;;5100229;27;45322;-78
2021/12/19 09:28:35;;;;;;;3.22;1.70;;;13.10;88.10;;;;;;5099381;27;45376;-79
2021/12/19 09:31:02;;;;;;;4.32;2.28;;;13.00;89.60;;;;;;5094862;27;45420;-79
2021/12/19 09:33:29;;;;;;;4.85;2.28;;;13.00;89.80;;;;;;5100034;27;45934;-79
2021/12/19 09:35:57;;;;;;;4.20;1.95;;;13.10;88.70;;;;;;5102488;27;45465;-79
2021/12/19 09:38:25;;;;;;;6.57;2.13;;;13.10;89.40;;;;;;5098475;27;45699;-79
2021/12/19 09:40:59;;;;;;;4.43;2.13;;;13.00;89.80;;;;;;5102079;27;45242;-79
2021/12/19 09:43:41;;;;;;;3.35;1.77;;;13.10;89.20;;;;;;5100859;27;45475;-78
2021/12/19 09:46:10;;;;;;;3.72;1.80;;;12.90;90.10;;;;;;5095473;27;47559;-79
2021/12/19 09:48:39;;;;;;;5.85;2.60;;;12.60;90.60;;;;;;5103512;27;45329;-78
2021/12/19 09:51:06;;;;;;;3.40;1.58;;;12.50;91.00;;;;;;5101495;27;45236;-79
2021/12/19 09:53:34;;;;;;;4.60;2.05;;;12.70;90.60;;;;;;5100530;27;45357;-78
2021/12/19 09:56:01;;;;;;;4.38;1.92;;;12.70;90.70;;;;;;5101487;27;46679;-79
2021/12/19 09:58:31;;;;;;;3.70;1.92;;;12.90;90.10;;;;;;5106289;27;45754;-78
2021/12/19 10:00:58;;;;;;;4.18;2.08;;;12.90;90.40;;;;;;5102972;27;45204;-78
2021/12/19 10:03:24;;;;;;;2.90;1.70;;;12.50;90.60;;;;;;5100919;27;45167;-79
2021/12/19 10:06:10;;;;;;;4.50;2.13;;;12.40;91.40;;;;;;5099125;27;46465;-78
2021/12/19 10:08:39;;;;;;;2.97;1.75;;;12.40;91.40;;;;;;5109270;27;45270;-78
2021/12/19 10:11:13;;;;;;;3.97;1.77;;;12.60;91.50;;;;;;5107443;27;45265;-78
2021/12/19 10:13:41;;;;;;;2.30;1.50;;;12.80;91.20;;;;;;5101331;27;45266;-78
2021/12/19 10:16:24;;;;;;;2.58;1.48;;;13.10;90.00;;;;;;5100248;27;45336;-78
2021/12/19 10:18:52;;;;;;;4.05;1.70;;;12.90;90.70;;;;;;5095712;27;46684;-78
2021/12/19 10:21:19;;;;;;;2.97;1.55;;;12.70;90.70;;;;;;5097886;27;45370;-78
2021/12/19 10:23:48;;;;;;;3.83;1.42;;;12.80;91.20;;;;;;5113464;27;45599;-78
2021/12/19 10:26:16;;;;;;;4.10;1.73;;;12.90;90.70;;;;;;5096660;27;45222;-78
2021/12/19 10:28:50;;;;;;;3.10;1.95;;;12.80;90.70;;;;;;5107495;27;45298;-78
2021/12/19 10:31:17;;;;;;;2.25;1.60;;;12.80;90.90;;;;;;5100510;27;45328;-78
2021/12/19 10:33:46;;;;;;;2.20;1.50;;;12.80;90.60;;;;;;5103616;27;45444;-78
2021/12/19 10:36:12;;;;;;;6.20;1.75;;;12.90;90.80;;;;;;5103634;27;47316;-78
2021/12/19 10:38:43;;;;;;;2.10;1.50;;;12.90;90.90;;;;;;5105872;27;45406;-78
2021/12/19 10:41:14;;;;;;;2.63;1.63;;;13.00;90.80;;;;;;5107963;27;45238;-78
2021/12/19 10:43:46;;;;;;;4.00;1.70;;;12.90;90.50;;;;;;5098376;27;45133;-78
2021/12/19 10:46:13;;;;;;;3.80;1.50;;;12.70;91.40;;;;;;5101712;27;47057;-78
2021/12/19 10:48:41;;;;;;;2.53;1.38;;;13.00;90.70;;;;;;5102601;27;45324;-78
2021/12/19 10:51:10;;;;;;;3.90;1.98;;;12.90;91.00;;;;;;5101131;27;45341;-78
2021/12/19 10:53:42;;;;;;;3.05;1.70;;;13.10;90.80;;;;;;5101309;27;45385;-78
2021/12/19 10:56:13;;;;;;;2.75;1.50;;;13.50;90.00;;;;;;5109349;27;46310;-78
2021/12/19 10:58:45;;;;;;;6.25;1.80;;;13.40;89.00;;;;;;5109544;27;45284;-78
2021/12/19 11:01:17;;;;;;;2.63;1.70;;;13.00;90.40;;;;;;5106398;27;45809;-78
2021/12/19 11:04:01;;;;;;;4.32;1.63;;;12.60;91.20;;;;;;5109751;27;45345;-78
2021/12/19 11:06:36;;;;;;;3.10;1.42;;;12.50;91.50;;;;;;5108353;27;46452;-78
2021/12/19 11:09:11;;;;;;;2.22;1.30;;;12.20;93.10;;;;;;5106115;27;45287;-78
2021/12/19 11:11:47;;;;;;;2.58;1.90;;;12.40;92.70;;;;;;5110138;27;45183;-78
2021/12/19 11:14:17;;;;;;;2.13;1.40;;;12.40;92.30;;;;;;5092043;27;45178;-78
2021/12/19 11:16:45;;;;;;;3.35;1.67;;;12.40;92.30;;;;;;5101515;27;46950;-78
2021/12/19 11:19:12;;;;;;;2.53;1.40;;;12.80;91.50;;;;;;5110103;27;45172;-78
2021/12/19 11:21:40;;;;;;;3.05;1.45;;;12.80;90.60;;;;;;5110111;27;45186;-78
2021/12/19 11:24:08;;;;;;;2.05;1.35;;;12.80;91.60;;;;;;5109960;27;45548;-78
2021/12/19 11:26:38;;;;;;;2.35;1.67;;;12.70;91.40;;;;;;5109889;27;47419;-78
2021/12/19 11:29:07;;;;;;;3.08;1.50;;;12.70;91.50;;;;;;5109719;27;45292;-78
2021/12/19 11:31:34;;;;;;;3.30;1.83;;;12.80;91.20;;;;;;5098236;27;45411;-78
2021/12/19 11:34:28;;;;;;;2.53;1.52;;;12.90;91.00;;;;;;5106762;27;45374;-78
2021/12/19 11:37:03;;;;;;;4.80;1.70;;;13.00;90.80;;;;;;5078925;27;45723;-78
2021/12/19 11:39:32;;;;;;;3.72;1.83;;;12.80;91.00;;;;;;5109943;27;45238;-78
2021/12/19 11:42:09;;;;;;;2.15;1.48;;;12.80;91.50;;;;;;5107736;27;45212;-78
2021/12/19 11:44:47;;;;;;;3.53;1.92;;;12.80;91.60;;;;;;5086366;28;45284;-78
2021/12/19 11:47:16;;;;;;;4.25;1.67;;;12.80;91.20;;;;;;5096868;27;46736;-79
2021/12/19 11:49:44;;;;;;;2.15;1.20;;;12.60;91.30;;;;;;5101223;27;45187;-78
2021/12/19 11:52:29;;;;;;;2.13;1.55;;;12.50;92.20;;;;;;5089154;28;45541;-78
2021/12/19 11:55:19;;;;;;;2.25;1.67;;;12.70;91.70;;;;;;5106991;27;45339;-78
2021/12/19 11:58:22;;;;;;;1.70;1.30;;;12.60;91.50;;;;;;5107693;27;45694;-78
2021/12/19 12:01:07;;;;;;;2.72;1.50;;;13.10;91.30;;;;;;5091439;27;45598;-78
2021/12/19 12:03:46;;;;;;;3.20;1.30;;;13.40;90.10;;;;;;5097675;27;45525;-78
2021/12/19 12:06:35;;;;;;;3.22;1.90;;;13.00;90.20;;;;;;5105098;27;45367;-78
2021/12/19 12:09:32;;;;;;;5.00;2.25;;;12.70;91.60;;;;;;5100019;27;45650;-78
2021/12/19 12:12:33;;;;;;;2.55;1.73;;;12.70;91.50;;;;;;5097202;27;45309;-77
2021/12/19 12:15:09;;;;;;;2.65;1.40;;;12.70;91.10;;;;;;5098818;27;45241;-77
2021/12/19 12:17:49;;;;;;;1.73;1.25;;;12.30;92.00;;;;;;5097817;27;45332;-78
2021/12/19 12:20:19;;;;;;;2.35;1.38;;;12.70;92.00;;;;;;5093719;27;46781;-78
2021/12/19 12:22:56;;;;;;;1.50;1.20;;;12.80;89.80;;;;;;5095886;27;45177;-78
2021/12/19 12:25:33;;;;;;;1.73;1.00;;;12.70;91.00;;;;;;5096601;27;45215;-77
2021/12/19 12:28:06;;;;;;;1.90;1.10;;;13.00;90.90;;;;;;5096972;27;45473;-77
2021/12/19 12:30:36;;;;;;;1.98;1.20;;;13.10;90.20;;;;;;5100200;27;47537;-77
2021/12/19 12:33:06;;;;;;;2.05;1.30;;;13.00;89.80;;;;;;5096499;27;45592;-78
2021/12/19 12:35:36;;;;;;;1.77;1.23;;;13.40;90.00;;;;;;5098559;27;45292;-78
2021/12/19 12:38:04;;;;;;;2.03;1.05;;;12.90;90.00;;;;;;5095966;27;45445;-78
2021/12/19 12:40:44;;;;;;;2.58;1.20;;;12.70;90.30;;;;;;5097104;27;47864;-78
2021/12/19 12:43:13;;;;;;;1.95;0.98;;;12.80;90.50;;;;;;5099572;27;45710;-79
2021/12/19 12:46:01;;;;;;;1.33;0.90;;;13.10;90.00;;;;;;5098233;27;45577;-78
2021/12/19 12:48:35;;;;;;;1.23;0.77;;;13.00;87.50;;;;;;5103038;27;45496;-79
2021/12/19 12:51:05;;;;;;;0.93;0.82;;;13.00;88.50;;;;;;5108231;27;46242;-78
2021/12/19 12:53:37;;;;;;;1.73;0.70;;;13.30;86.00;;;;;;5098745;27;45356;-78
2021/12/19 12:56:09;;;;;;;0.80;0.70;;;13.20;86.10;;;;;;5096176;27;45266;-79
2021/12/19 12:58:45;;;;;;;0.70;0.60;;;13.00;88.20;;;;;;5094353;27;45364;-79
2021/12/19 13:01:25;;;;;;;1.00;0.63;;;13.00;87.70;;;;;;5096870;27;47249;-79
2021/12/19 13:04:09;;;;;;;0.77;0.50;;;12.70;88.40;;;;;;5100056;27;45292;-78
2021/12/19 13:07:02;;;;;;;0.65;0.60;;;13.00;88.00;;;;;;5091269;27;45226;-78
2021/12/19 13:09:34;;;;;;;1.13;0.60;;;12.80;88.80;;;;;;5093817;27;45464;-78
2021/12/19 13:12:11;;;;;;;0.70;0.50;;;13.00;87.00;;;;;;5101289;27;46449;-78
2021/12/19 13:14:40;;;;;;;1.08;0.60;;;12.80;88.50;;;;;;5103284;27;45338;-78
2021/12/19 13:17:09;;;;;;;0.65;0.45;;;12.70;88.70;;;;;;5092448;27;45263;-78
2021/12/19 13:19:52;;;;;;;1.85;0.60;;;13.00;86.60;;;;;;5097117;27;45443;-78
2021/12/19 13:22:34;;;;;;;0.75;0.50;;;12.80;88.00;;;;;;5095629;27;45479;-79
2021/12/19 13:25:07;;;;;;;0.57;0.40;;;12.80;88.70;;;;;;5093726;27;45467;-79
2021/12/19 13:27:36;;;;;;;0.57;0.43;;;12.90;87.40;;;;;;5095917;27;45474;-79
2021/12/19 13:30:14;;;;;;;0.40;0.40;;;12.80;89.20;;;;;;5093728;27;45596;-79
2021/12/19 13:32:42;;;;;;;1.85;0.40;;;12.50;89.00;;;;;;5091259;28;45209;-79
2021/12/19 13:35:17;;;;;;;1.20;0.40;;;12.90;89.80;;;;;;5098601;27;45282;-79
2021/12/19 13:37:56;;;;;;;0.75;0.38;;;13.10;87.00;;;;;;5099386;27;45263;-79
2021/12/19 13:40:26;;;;;;;0.50;0.40;;;13.10;87.10;;;;;;5099597;27;45688;-78
2021/12/19 13:42:56;;;;;;;0.45;0.35;;;12.90;89.10;;;;;;5107469;27;47321;-78
2021/12/19 13:45:47;;;;;;;0.50;0.30;;;13.20;88.60;;;;;;5098853;27;45378;-78
2021/12/19 13:48:27;;;;;;;1.40;0.43;;;13.60;86.00;;;;;;5102116;27;45247;-78
2021/12/19 13:50:59;;;;;;;0.40;0.40;;;13.10;87.10;;;;;;5101520;27;45341;-78